Time;durP1;ratioP1;P1;durP2;ratioP2;P2;SDS_P1;SDS_P2;PMS_P1;PMS_P2;Temp;Humidity;BMP_temperature;BMP_pressure;BME280_temperature;BME280_humidity;BME280_pressure;Samples;Min_cycle;Max_cycle;Signal;HPM_P1;HPM_P2
2022/10/10 00:00:33;;;;;;;;;18.25;13.75;;;;;15.62;55.84;100731.00;5015279;28;45525;-58
2022/10/10 00:02:58;;;;;;;;;14.50;11.00;;;;;15.61;55.69;100734.88;5013893;28;45299;-57
2022/10/10 00:05:24;;;;;;;;;16.00;10.75;;;;;15.61;56.13;100737.63;5015489;28;46133;-56
2022/10/10 00:07:49;;;;;;;;;16.50;13.25;;;;;15.58;56.18;100730.66;5015256;28;46294;-57
2022/10/10 00:10:15;;;;;;;;;11.50;11.50;;;;;15.54;56.15;100736.94;5015003;28;45434;-58
2022/10/10 00:12:40;;;;;;;;;11.50;9.25;;;;;15.52;56.41;100734.41;5014092;28;45371;-57
2022/10/10 00:15:07;;;;;;;;;13.00;12.25;;;;;15.56;56.11;100734.75;5015341;28;45376;-57
2022/10/10 00:17:32;;;;;;;;;13.00;12.80;;;;;15.52;56.08;100734.41;5014683;28;46358;-57
2022/10/10 00:19:57;;;;;;;;;17.00;13.75;;;;;15.46;56.35;100721.56;5014850;28;45365;-57
2022/10/10 00:22:23;;;;;;;;;15.75;14.00;;;;;15.45;56.32;100725.41;5014875;28;45350;-61
2022/10/10 00:24:49;;;;;;;;;14.50;14.50;;;;;15.41;56.96;100729.75;5047976;28;45323;-58
2022/10/10 00:27:14;;;;;;;;;17.50;15.25;;;;;14.64;57.13;100608.19;5018067;28;46408;-58
2022/10/10 00:29:40;;;;;;;;;17.00;14.25;;;;;15.32;57.07;100735.66;5018396;28;45412;-57
2022/10/10 00:32:05;;;;;;;;;14.75;14.75;;;;;15.34;56.99;100723.50;5018077;28;45428;-58
2022/10/10 00:34:30;;;;;;;;;12.50;12.50;;;;;15.34;57.30;100731.81;4999066;28;45307;-58
2022/10/10 00:36:56;;;;;;;;;13.75;11.00;;;;;15.28;56.77;100728.97;4985820;28;46299;-58
2022/10/10 00:39:21;;;;;;;;;14.50;12.25;;;;;15.16;56.74;100709.63;4997554;28;45877;-57
2022/10/10 00:41:47;;;;;;;;;14.75;14.50;;;;;15.26;57.04;100733.06;4996907;28;45448;-57
2022/10/10 00:44:13;;;;;;;;;14.25;12.75;;;;;15.22;57.45;100724.41;4998354;28;45426;-58
2022/10/10 00:46:39;;;;;;;;;12.25;12.25;;;;;15.18;57.23;100718.53;4998074;28;45484;-58
2022/10/10 00:49:09;;;;;;;;;13.75;11.25;;;;;15.14;57.24;100713.69;4997773;28;45373;-58
2022/10/10 00:51:34;;;;;;;;;15.80;15.60;;;;;15.15;57.34;100723.66;4980901;28;45739;-57
2022/10/10 00:54:05;;;;;;;;;16.00;14.25;;;;;15.11;57.40;100712.25;4997138;28;45798;-55
2022/10/10 00:56:51;;;;;;;;;11.20;9.80;;;;;15.18;57.26;100723.19;4997563;28;46810;-57
2022/10/10 00:59:17;;;;;;;;;15.20;14.80;;;;;14.88;57.71;100660.63;4996438;28;45415;-57
2022/10/10 01:01:43;;;;;;;;;11.50;11.25;;;;;15.20;57.66;100723.78;4998291;28;45418;-56
2022/10/10 01:04:47;;;;;;;;;16.50;13.75;;;;;15.18;57.47;100720.44;4998050;28;45336;-57
2022/10/10 01:07:17;;;;;;;;;13.20;10.20;;;;;15.10;57.56;100709.75;4956011;28;48704;-58
2022/10/10 01:09:43;;;;;;;;;15.00;15.00;;;;;15.15;57.44;100712.63;4955639;28;45523;-56
2022/10/10 01:12:41;;;;;;;;;11.80;10.80;;;;;15.11;57.86;100714.22;4969584;28;45497;-57
2022/10/10 01:15:12;;;;;;;;;13.40;9.00;;;;;14.89;57.91;100687.22;4996490;28;45686;-58
2022/10/10 01:17:48;;;;;;;;;14.00;12.40;;;;;15.00;57.94;100710.38;4997055;28;47103;-58
2022/10/10 01:20:34;;;;;;;;;13.20;13.20;;;;;14.77;57.89;100670.63;5009467;28;45536;-58
2022/10/10 01:23:18;;;;;;;;;15.40;15.00;;;;;15.06;58.14;100709.41;5016569;28;45377;-57
2022/10/10 01:26:02;;;;;;;;;10.40;10.40;;;;;15.08;57.76;100709.16;5016598;28;45540;-57
2022/10/10 01:28:38;;;;;;;;;8.40;8.00;;;;;14.95;57.96;100696.44;5016970;28;46328;-55
2022/10/10 01:31:08;;;;;;;;;16.20;13.60;;;;;15.02;57.92;100716.50;5000209;28;45471;-55
2022/10/10 01:33:51;;;;;;;;;15.40;12.60;;;;;14.99;58.43;100717.00;5016510;28;45565;-56
2022/10/10 01:36:24;;;;;;;;;12.00;12.00;;;;;15.00;58.08;100719.50;5017212;28;45375;-57
2022/10/10 01:39:23;;;;;;;;;12.80;11.60;;;;;14.98;57.93;100705.09;5000125;28;46122;-57
2022/10/10 01:41:58;;;;;;;;;11.40;11.40;;;;;14.97;58.24;100708.94;4980201;28;46003;-56
2022/10/10 01:44:24;;;;;;;;;16.60;14.20;;;;;14.95;58.53;100704.72;5016120;28;45373;-57
2022/10/10 01:46:49;;;;;;;;;15.25;14.00;;;;;14.94;58.21;100706.66;5017412;28;45525;-57
2022/10/10 01:49:15;;;;;;;;;13.75;12.75;;;;;14.95;58.09;100707.50;5015813;28;45699;-57
2022/10/10 01:52:04;;;;;;;;;18.00;13.00;;;;;14.86;58.42;100698.72;4999336;28;45272;-57
2022/10/10 01:54:57;;;;;;;;;14.60;14.60;;;;;14.84;58.70;100711.97;5017366;28;45363;-56
2022/10/10 01:57:41;;;;;;;;;14.80;13.00;;;;;14.80;58.57;100703.31;5017514;28;45437;-56
2022/10/10 02:00:07;;;;;;;;;13.00;11.20;;;;;14.69;58.76;100691.16;5015416;28;45473;-56
2022/10/10 02:02:56;;;;;;;;;18.40;15.20;;;;;14.75;59.47;100703.19;5017262;28;45408;-57
2022/10/10 02:05:36;;;;;;;;;13.40;13.40;;;;;14.53;58.93;100669.78;5017243;28;45407;-55
2022/10/10 02:08:09;;;;;;;;;14.40;13.40;;;;;14.53;59.11;100664.25;5015912;28;45523;-56
2022/10/10 02:10:39;;;;;;;;;13.00;13.00;;;;;14.49;59.39;100659.22;5015906;28;45548;-58
2022/10/10 02:13:04;;;;;;;;;15.20;12.40;;;;;14.76;58.91;100704.88;5015282;28;45431;-57
2022/10/10 02:15:36;;;;;;;;;14.00;11.25;;;;;14.69;59.38;100693.94;5015799;28;45443;-55
2022/10/10 02:18:02;;;;;;;;;15.00;15.00;;;;;14.70;59.27;100701.13;4999582;28;45494;-57
2022/10/10 02:20:27;;;;;;;;;12.50;11.25;;;;;14.58;59.67;100672.66;4995257;28;47473;-57
2022/10/10 02:22:53;;;;;;;;;14.25;12.75;;;;;14.81;59.57;100706.91;4979466;28;45502;-56
2022/10/10 02:25:25;;;;;;;;;12.00;12.00;;;;;14.81;59.38;100695.84;4996943;28;45359;-56
2022/10/10 02:28:07;;;;;;;;;15.20;12.20;;;;;14.82;59.25;100703.03;4979847;28;45618;-57
2022/10/10 02:30:34;;;;;;;;;15.00;14.00;;;;;14.72;58.97;100685.13;4996368;28;46818;-57
2022/10/10 02:33:00;;;;;;;;;13.60;12.40;;;;;14.71;59.57;100694.50;4995107;28;45336;-57
2022/10/10 02:35:34;;;;;;;;;16.00;15.25;;;;;14.74;59.62;100704.28;4995192;28;45389;-57
2022/10/10 02:38:00;;;;;;;;;18.60;16.20;;;;;14.67;59.88;100696.06;4995124;28;45459;-57
2022/10/10 02:40:28;;;;;;;;;14.20;12.80;;;;;14.52;59.74;100665.34;4996146;28;45456;-55
2022/10/10 02:42:54;;;;;;;;;11.40;10.20;;;;;14.49;59.69;100667.50;4996456;28;45393;-58
2022/10/10 02:45:19;;;;;;;;;15.25;12.00;;;;;14.66;59.62;100699.91;4978620;28;45877;-57
2022/10/10 02:47:45;;;;;;;;;16.50;14.00;;;;;14.59;59.69;100685.38;4995597;28;45410;-55
2022/10/10 02:50:10;;;;;;;;;14.75;13.00;;;;;14.63;59.85;100703.16;4994893;28;46230;-56
2022/10/10 02:52:36;;;;;;;;;14.25;14.00;;;;;14.63;60.14;100700.41;4994740;28;45393;-57
2022/10/10 02:55:02;;;;;;;;;15.50;13.75;;;;;14.59;59.67;100701.97;4994966;28;45390;-56
2022/10/10 02:57:27;;;;;;;;;13.00;10.50;;;;;14.27;60.12;100661.72;4996145;28;45424;-55
2022/10/10 02:59:53;;;;;;;;;15.50;13.25;;;;;14.54;60.00;100704.59;4995897;28;45576;-56
2022/10/10 03:02:18;;;;;;;;;15.00;13.00;;;;;14.59;60.30;100704.72;4995988;28;45401;-57
2022/10/10 03:04:44;;;;;;;;;16.50;16.50;;;;;14.63;59.73;100705.94;4996105;28;45381;-57
2022/10/10 03:07:10;;;;;;;;;16.25;15.25;;;;;14.62;60.05;100696.78;4996317;28;45556;-58
2022/10/10 03:09:35;;;;;;;;;18.50;14.00;;;;;14.53;59.72;100672.53;4995737;28;45492;-57
2022/10/10 03:12:01;;;;;;;;;17.50;15.00;;;;;14.71;59.83;100705.56;5027753;28;45608;-57
2022/10/10 03:14:26;;;;;;;;;16.00;13.50;;;;;14.70;59.47;100694.75;4995702;28;45383;-57
2022/10/10 03:16:52;;;;;;;;;15.00;14.00;;;;;14.74;59.45;100696.81;4996231;28;45538;-57
2022/10/10 03:19:17;;;;;;;;;16.00;14.75;;;;;14.76;59.30;100704.88;5000415;28;46323;-57
2022/10/10 03:21:43;;;;;;;;;15.25;12.00;;;;;14.63;59.81;100683.84;5015598;28;45484;-57
2022/10/10 03:24:08;;;;;;;;;17.25;15.50;;;;;14.69;59.59;100698.59;4997690;28;45500;-58
2022/10/10 03:26:34;;;;;;;;;16.25;15.25;;;;;14.71;59.75;100694.50;5015605;28;45661;-58
2022/10/10 03:29:02;;;;;;;;;16.25;16.25;;;;;14.69;59.81;100696.69;5007957;28;45425;-56
2022/10/10 03:31:28;;;;;;;;;16.60;14.40;;;;;14.69;59.68;100691.16;5008882;28;45759;-56
2022/10/10 03:33:53;;;;;;;;;19.75;17.50;;;;;14.74;60.05;100696.00;5005868;28;45569;-57
2022/10/10 03:36:20;;;;;;;;;21.40;15.80;;;;;14.74;59.97;100696.81;5015492;28;45433;-56
2022/10/10 03:38:46;;;;;;;;;17.75;16.50;;;;;14.72;59.42;100698.94;5013356;28;46239;-57
2022/10/10 03:41:11;;;;;;;;;15.00;13.00;;;;;14.70;59.69;100700.28;5014124;28;45299;-55
2022/10/10 03:43:37;;;;;;;;;16.00;15.75;;;;;14.72;60.03;100692.56;5015041;28;45437;-58
2022/10/10 03:46:03;;;;;;;;;17.25;15.00;;;;;14.70;59.67;100690.06;5015655;28;45401;-58
2022/10/10 03:48:28;;;;;;;;;19.25;17.00;;;;;14.62;59.59;100676.63;5014978;28;46889;-59
2022/10/10 03:50:54;;;;;;;;;15.25;15.00;;;;;14.60;59.81;100678.78;5014793;28;45469;-57
2022/10/10 03:53:19;;;;;;;;;18.75;15.50;;;;;14.28;60.24;100633.03;5015163;28;45543;-56
2022/10/10 03:55:45;;;;;;;;;16.75;15.75;;;;;14.53;60.01;100678.91;5014993;28;45546;-57
2022/10/10 03:58:10;;;;;;;;;15.50;15.50;;;;;14.42;60.21;100665.94;5013368;28;47023;-58
2022/10/10 04:00:36;;;;;;;;;16.25;12.00;;;;;14.60;60.28;100710.00;5014622;28;45436;-58
2022/10/10 04:03:05;;;;;;;;;17.00;15.75;;;;;14.63;60.30;100692.13;5014765;28;45340;-57
2022/10/10 04:05:34;;;;;;;;;15.40;15.40;;;;;14.69;60.54;100701.34;5015154;28;45601;-55
2022/10/10 04:08:00;;;;;;;;;17.40;15.80;;;;;14.68;60.31;100703.25;5013325;28;46636;-57
2022/10/10 04:10:25;;;;;;;;;16.50;14.00;;;;;14.59;60.41;100699.19;5014706;28;45488;-56
2022/10/10 04:12:51;;;;;;;;;16.00;14.75;;;;;14.58;60.99;100692.00;5014623;28;45446;-56
2022/10/10 04:15:16;;;;;;;;;14.00;12.00;;;;;14.58;60.90;100690.06;5013537;28;45626;-56
2022/10/10 04:17:42;;;;;;;;;15.00;14.50;;;;;14.56;60.78;100688.66;5014871;28;45609;-53
2022/10/10 04:20:08;;;;;;;;;15.75;13.75;;;;;14.59;60.63;100693.66;5014371;28;45725;-55
2022/10/10 04:22:33;;;;;;;;;15.75;13.75;;;;;14.56;60.63;100685.88;5015195;28;45363;-56
2022/10/10 04:24:59;;;;;;;;;15.00;12.50;;;;;14.53;60.94;100687.19;5013279;28;45608;-56
2022/10/10 04:27:24;;;;;;;;;12.50;12.50;;;;;14.49;60.67;100692.34;5012954;28;48370;-56
2022/10/10 04:29:50;;;;;;;;;16.25;15.00;;;;;14.40;61.32;100690.19;5014045;28;45348;-56
2022/10/10 04:32:15;;;;;;;;;9.00;8.00;;;;;14.37;61.43;100694.28;5014419;28;45395;-55
2022/10/10 04:34:41;;;;;;;;;14.25;13.25;;;;;14.25;62.06;100676.84;5014506;28;45434;-58
2022/10/10 04:37:06;;;;;;;;;9.00;9.00;;;;;14.36;61.81;100695.34;5013793;28;46309;-58
2022/10/10 04:39:32;;;;;;;;;13.25;12.00;;;;;14.35;62.07;100688.13;5014270;28;45347;-55
2022/10/10 04:41:57;;;;;;;;;12.50;12.50;;;;;14.35;62.00;100699.16;5014371;28;45445;-58
2022/10/10 04:44:23;;;;;;;;;12.00;11.25;;;;;14.36;61.82;100695.34;5014632;28;45747;-60
2022/10/10 04:46:48;;;;;;;;;13.00;12.50;;;;;14.38;61.86;100704.22;5014510;28;46509;-58
2022/10/10 04:49:14;;;;;;;;;14.25;12.25;;;;;14.31;62.38;100681.41;5012713;28;45438;-56
2022/10/10 04:51:39;;;;;;;;;14.50;13.00;;;;;14.40;62.44;100693.78;5014649;28;45451;-55
2022/10/10 04:54:05;;;;;;;;;15.25;14.25;;;;;14.40;62.60;100685.50;5014289;28;45418;-57
2022/10/10 04:56:30;;;;;;;;;9.50;9.50;;;;;14.21;62.11;100671.78;5029442;28;48559;-58
2022/10/10 04:58:56;;;;;;;;;13.25;13.25;;;;;14.34;62.23;100698.34;5014167;28;45491;-58
2022/10/10 05:01:21;;;;;;;;;15.00;12.75;;;;;14.37;62.51;100677.72;5013947;28;45410;-55
2022/10/10 05:03:47;;;;;;;;;17.75;13.50;;;;;14.13;62.72;100639.03;5014318;28;45650;-55
2022/10/10 05:06:12;;;;;;;;;11.75;11.75;;;;;14.34;62.46;100675.41;5013760;28;45788;-57
2022/10/10 05:08:38;;;;;;;;;15.00;14.00;;;;;14.31;62.32;100679.47;5014099;28;45295;-57
2022/10/10 05:11:04;;;;;;;;;15.00;13.00;;;;;14.25;62.82;100682.38;5015072;28;45243;-58
2022/10/10 05:13:29;;;;;;;;;16.00;13.50;;;;;14.25;62.78;100691.47;5017775;28;45623;-57
2022/10/10 05:15:55;;;;;;;;;14.00;12.25;;;;;14.22;63.33;100695.56;5017293;28;45953;-56
2022/10/10 05:18:20;;;;;;;;;11.25;11.25;;;;;14.20;62.84;100691.38;5017373;28;45437;-56
2022/10/10 05:20:48;;;;;;;;;12.75;12.50;;;;;14.18;63.59;100708.16;5001264;28;45364;-59
2022/10/10 05:23:14;;;;;;;;;14.40;12.80;;;;;14.13;63.58;100702.50;4996305;28;45491;-59
2022/10/10 05:25:43;;;;;;;;;12.50;11.25;;;;;13.97;63.64;100670.91;4996087;28;46292;-56
2022/10/10 05:28:09;;;;;;;;;14.40;12.60;;;;;14.14;63.85;100693.13;4997653;28;45445;-55
2022/10/10 05:30:34;;;;;;;;;12.25;11.25;;;;;14.11;63.35;100699.16;4995851;28;45246;-57
2022/10/10 05:33:00;;;;;;;;;8.75;7.75;;;;;14.11;63.81;100696.38;4997930;28;45496;-56
2022/10/10 05:35:25;;;;;;;;;13.25;13.25;;;;;14.11;63.59;100690.88;4997012;28;46302;-55
2022/10/10 05:37:51;;;;;;;;;13.50;12.00;;;;;14.06;63.63;100682.44;4997313;28;45354;-55
2022/10/10 05:40:17;;;;;;;;;15.50;14.25;;;;;14.10;64.01;100692.78;4997146;28;45424;-57
2022/10/10 05:42:42;;;;;;;;;17.00;13.00;;;;;14.09;63.29;100684.75;4997658;28;45706;-57
2022/10/10 05:45:08;;;;;;;;;11.75;11.25;;;;;14.05;63.79;100689.06;4997248;28;45697;-57
2022/10/10 05:47:34;;;;;;;;;10.75;10.75;;;;;13.93;64.23;100673.31;4996799;28;45427;-56
2022/10/10 05:49:59;;;;;;;;;12.50;12.00;;;;;13.99;63.69;100690.84;4997116;28;45451;-55
2022/10/10 05:52:25;;;;;;;;;17.00;12.25;;;;;13.94;64.13;100683.25;4997261;28;45466;-53
2022/10/10 05:54:51;;;;;;;;;16.50;11.75;;;;;14.01;64.09;100677.66;4995643;28;46328;-57
2022/10/10 05:57:16;;;;;;;;;15.60;14.40;;;;;13.83;64.11;100650.97;4995802;28;45386;-54
2022/10/10 05:59:42;;;;;;;;;16.00;14.75;;;;;13.79;63.76;100642.34;4996658;28;45417;-55
2022/10/10 06:02:10;;;;;;;;;14.50;13.50;;;;;14.07;63.92;100684.97;4996269;28;45393;-56
2022/10/10 06:04:36;;;;;;;;;12.80;12.20;;;;;14.08;63.64;100688.56;4995083;28;45884;-54
2022/10/10 06:07:01;;;;;;;;;14.50;14.25;;;;;14.09;63.89;100684.75;4995565;28;45311;-57
2022/10/10 06:09:26;;;;;;;;;14.00;13.75;;;;;13.42;63.83;100584.53;4996895;28;45568;-55
2022/10/10 06:11:52;;;;;;;;;13.75;12.00;;;;;13.91;63.88;100653.41;4995679;28;45401;-56
2022/10/10 06:14:17;;;;;;;;;18.50;13.50;;;;;14.03;64.21;100689.28;4996647;28;45883;-56
2022/10/10 06:16:44;;;;;;;;;14.75;13.00;;;;;14.01;64.59;100699.72;4996546;28;45453;-60
2022/10/10 06:19:10;;;;;;;;;17.00;14.60;;;;;14.03;64.36;100699.50;4999462;28;45315;-59
2022/10/10 06:21:35;;;;;;;;;14.00;13.50;;;;;13.87;64.29;100676.19;5014893;28;45566;-52
2022/10/10 06:24:01;;;;;;;;;13.50;13.50;;;;;14.06;64.19;100707.28;5015191;28;46575;-54
2022/10/10 06:26:30;;;;;;;;;15.25;13.50;;;;;13.99;64.74;100698.28;5014750;28;45281;-56
2022/10/10 06:28:55;;;;;;;;;13.00;13.00;;;;;14.00;64.29;100698.06;5015920;28;45405;-56
2022/10/10 06:31:21;;;;;;;;;12.00;12.00;;;;;14.08;64.72;100714.25;5016965;28;45379;-55
2022/10/10 06:33:48;;;;;;;;;17.00;14.00;;;;;14.18;64.55;100715.59;5016054;28;46798;-57
2022/10/10 06:36:14;;;;;;;;;14.40;14.40;;;;;14.18;64.42;100710.91;5016546;28;45603;-56
2022/10/10 06:38:40;;;;;;;;;15.20;13.80;;;;;14.23;64.07;100722.09;5016738;28;45411;-56
2022/10/10 06:41:06;;;;;;;;;15.40;15.20;;;;;14.17;63.85;100705.63;5016245;28;45600;-53
2022/10/10 06:43:31;;;;;;;;;18.00;14.00;;;;;14.30;63.87;100716.44;5015126;28;46018;-57
2022/10/10 06:45:57;;;;;;;;;14.25;11.00;;;;;14.13;63.59;100691.47;5015971;28;45698;-58
2022/10/10 06:48:23;;;;;;;;;15.50;13.00;;;;;14.29;63.70;100719.47;5014845;28;45370;-56
2022/10/10 06:51:08;;;;;;;;;16.00;14.25;;;;;14.25;64.28;100721.84;5016357;28;45333;-54
2022/10/10 06:53:33;;;;;;;;;18.00;16.20;;;;;14.22;63.92;100725.09;5016147;28;46667;-54
2022/10/10 06:55:59;;;;;;;;;15.25;13.25;;;;;14.20;63.91;100733.59;5015845;28;45214;-54
2022/10/10 06:58:25;;;;;;;;;19.00;16.75;;;;;14.22;64.20;100731.47;5016267;28;45371;-54
2022/10/10 07:00:55;;;;;;;;;21.00;19.60;;;;;14.21;64.55;100746.31;5016158;28;45323;-53
2022/10/10 07:03:21;;;;;;;;;16.80;15.00;;;;;14.27;64.37;100749.22;5015915;28;46578;-54
2022/10/10 07:05:54;;;;;;;;;17.25;15.00;;;;;14.29;63.98;100755.34;5015821;28;45325;-54
2022/10/10 07:08:20;;;;;;;;;16.40;16.40;;;;;14.32;64.03;100760.41;5014740;28;45440;-52
2022/10/10 07:10:46;;;;;;;;;13.00;11.75;;;;;14.35;64.30;100754.38;5048188;28;45384;-55
2022/10/10 07:13:12;;;;;;;;;18.00;16.50;;;;;14.35;63.90;100769.03;5015654;28;45507;-56
2022/10/10 07:15:37;;;;;;;;;17.20;17.20;;;;;14.18;64.33;100724.72;5015665;28;45297;-54
2022/10/10 07:18:03;;;;;;;;;14.25;13.75;;;;;14.34;63.88;100748.03;5015926;28;45263;-56
2022/10/10 07:20:28;;;;;;;;;17.25;14.50;;;;;14.46;63.97;100761.84;5002727;28;45503;-53
2022/10/10 07:22:54;;;;;;;;;12.75;12.75;;;;;14.55;63.98;100767.03;4995767;28;45674;-55
2022/10/10 07:25:19;;;;;;;;;15.00;15.00;;;;;14.57;63.70;100775.94;4993940;28;45432;-59
2022/10/10 07:27:45;;;;;;;;;18.25;15.25;;;;;14.62;63.52;100776.06;4982066;28;45395;-56
2022/10/10 07:30:11;;;;;;;;;18.75;16.00;;;;;14.61;64.02;100771.59;5015275;28;45556;-57
2022/10/10 07:32:37;;;;;;;;;16.50;15.50;;;;;14.67;63.71;100767.06;5015325;28;45575;-58
2022/10/10 07:35:03;;;;;;;;;15.00;14.80;;;;;14.67;63.61;100762.34;5013767;28;45455;-58
2022/10/10 07:37:28;;;;;;;;;15.75;15.75;;;;;14.74;63.67;100770.56;5015527;28;45478;-58
2022/10/10 07:39:54;;;;;;;;;13.75;12.50;;;;;14.51;63.80;100719.72;5015715;28;45433;-58
2022/10/10 07:42:19;;;;;;;;;13.75;13.75;;;;;14.16;63.49;100663.41;5015045;28;46846;-59
2022/10/10 07:44:45;;;;;;;;;18.00;17.00;;;;;14.80;63.96;100766.00;5013630;28;45478;-58
2022/10/10 07:47:11;;;;;;;;;15.50;14.00;;;;;14.88;63.66;100773.94;5013779;28;45488;-58
2022/10/10 07:49:36;;;;;;;;;15.40;14.60;;;;;14.87;63.62;100781.41;5030417;28;45588;-59
2022/10/10 07:52:02;;;;;;;;;19.75;16.00;;;;;14.70;63.64;100750.84;5014742;28;45687;-59
2022/10/10 07:54:28;;;;;;;;;15.75;15.00;;;;;15.01;63.73;100784.75;5013716;28;45488;-59
2022/10/10 07:56:54;;;;;;;;;16.20;16.20;;;;;15.02;63.48;100782.81;5013745;28;45352;-59
2022/10/10 07:59:21;;;;;;;;;13.75;13.75;;;;;15.06;62.91;100784.03;4943902;28;45554;-59
2022/10/10 08:01:46;;;;;;;;;14.80;14.20;;;;;15.12;63.23;100785.84;5008304;28;46193;-57
2022/10/10 08:04:12;;;;;;;;;19.00;18.50;;;;;15.16;63.11;100786.19;5002794;28;45735;-52
2022/10/10 08:06:37;;;;;;;;;18.75;15.25;;;;;15.16;63.55;100778.72;5010220;28;45495;-55
2022/10/10 08:09:03;;;;;;;;;15.25;12.50;;;;;15.15;63.72;100779.81;5008059;28;45515;-57
2022/10/10 08:11:28;;;;;;;;;14.00;14.00;;;;;15.03;63.13;100760.47;5008119;28;45448;-56
2022/10/10 08:13:54;;;;;;;;;16.25;13.00;;;;;15.01;63.99;100761.81;5008885;28;45486;-61
2022/10/10 08:16:19;;;;;;;;;15.25;15.25;;;;;15.17;63.60;100785.94;5009730;28;45378;-59
2022/10/10 08:18:45;;;;;;;;;15.25;14.50;;;;;15.14;63.71;100783.66;5008617;28;45940;-58
2022/10/10 08:21:11;;;;;;;;;16.25;15.75;;;;;15.17;64.31;100790.63;5006701;28;46508;-60
2022/10/10 08:23:37;;;;;;;;;15.80;15.60;;;;;15.22;63.87;100784.38;4994669;28;45420;-48
2022/10/10 08:26:05;;;;;;;;;14.00;13.00;;;;;15.14;64.06;100764.31;4990478;28;45434;-50
2022/10/10 08:28:31;;;;;;;;;18.20;16.80;;;;;15.22;64.23;100779.69;4991293;28;45372;-59
2022/10/10 08:30:57;;;;;;;;;13.75;13.75;;;;;15.39;63.73;100812.13;4999781;28;45532;-53
2022/10/10 08:33:25;;;;;;;;;15.50;15.25;;;;;15.26;63.66;100786.41;5009151;28;45851;-56
2022/10/10 08:35:51;;;;;;;;;16.00;15.20;;;;;15.49;63.45;100817.91;5008987;28;45588;-55
2022/10/10 08:38:16;;;;;;;;;19.00;16.00;;;;;15.01;63.68;100735.00;5007860;28;45804;-56
2022/10/10 08:40:46;;;;;;;;;15.25;14.50;;;;;15.52;63.70;100813.81;5009972;28;45984;-57
2022/10/10 08:43:20;;;;;;;;;21.40;18.80;;;;;15.57;63.73;100809.22;4992769;28;45743;-57
2022/10/10 08:45:46;;;;;;;;;12.20;10.00;;;;;15.61;63.89;100817.00;4991746;28;45354;-60
2022/10/10 08:48:13;;;;;;;;;15.50;15.50;;;;;15.72;63.58;100827.22;4976765;28;45465;-59
2022/10/10 08:50:41;;;;;;;;;16.80;15.40;;;;;15.79;63.76;100827.91;4962530;28;46303;-61
2022/10/10 08:53:27;;;;;;;;;17.80;16.60;;;;;15.79;63.42;100833.44;4995986;28;45982;-60
2022/10/10 08:55:52;;;;;;;;;17.80;13.80;;;;;15.84;63.81;100846.53;5014040;28;45422;-59
2022/10/10 08:58:47;;;;;;;;;16.25;15.00;;;;;15.86;63.65;100853.50;5012515;28;45520;-60
2022/10/10 09:01:19;;;;;;;;;15.80;14.40;;;;;15.91;63.85;100849.19;4996433;28;51194;-60
2022/10/10 09:03:46;;;;;;;;;17.60;16.20;;;;;15.95;63.91;100848.47;5011739;28;45773;-58
2022/10/10 09:06:49;;;;;;;;;11.40;11.40;;;;;16.03;64.06;100836.19;5013696;28;45455;-59
2022/10/10 09:09:33;;;;;;;;;15.80;14.60;;;;;16.10;63.86;100842.41;5013669;28;45849;-59
2022/10/10 09:12:25;;;;;;;;;17.00;14.60;;;;;16.12;64.39;100842.16;5012821;28;45524;-59
2022/10/10 09:15:03;;;;;;;;;11.40;11.40;;;;;15.89;64.40;100801.56;5012355;28;45964;-60
2022/10/10 09:17:38;;;;;;;;;14.20;14.00;;;;;16.17;64.51;100845.00;5012246;28;45622;-59
2022/10/10 09:20:28;;;;;;;;;17.20;13.40;;;;;16.17;64.66;100856.09;5011601;28;45495;-60
2022/10/10 09:23:12;;;;;;;;;18.20;14.60;;;;;16.26;64.28;100859.31;5011308;28;46896;-60
2022/10/10 09:25:59;;;;;;;;;17.20;14.20;;;;;16.31;64.72;100851.09;5029900;28;45396;-59
2022/10/10 09:29:07;;;;;;;;;16.20;13.80;;;;;16.34;64.35;100850.59;5011981;28;45614;-59
2022/10/10 09:31:38;;;;;;;;;14.00;12.60;;;;;16.39;64.68;100849.88;4989927;28;46016;-60
2022/10/10 09:34:16;;;;;;;;;15.20;13.60;;;;;16.41;64.89;100861.53;5011377;28;45770;-59
2022/10/10 09:36:41;;;;;;;;;14.80;12.60;;;;;16.42;64.85;100868.75;4995531;28;45786;-60
2022/10/10 09:39:18;;;;;;;;;12.25;12.25;;;;;16.46;65.01;100877.41;5012057;28;45391;-62
2022/10/10 09:41:56;;;;;;;;;14.80;11.80;;;;;16.49;64.70;100890.78;5011486;28;45562;-60
2022/10/10 09:44:22;;;;;;;;;15.20;12.80;;;;;16.34;65.53;100867.22;5011311;28;45465;-60
2022/10/10 09:46:48;;;;;;;;;16.00;13.25;;;;;16.56;64.53;100894.22;4990482;28;45494;-60
2022/10/10 09:49:14;;;;;;;;;12.25;11.75;;;;;16.57;64.63;100895.06;4993027;28;45441;-61
2022/10/10 09:51:40;;;;;;;;;14.00;13.40;;;;;16.60;64.85;100902.88;4996559;28;45762;-62
2022/10/10 09:54:05;;;;;;;;;10.75;9.75;;;;;16.61;65.29;100910.97;5012560;28;46142;-60
2022/10/10 09:56:52;;;;;;;;;12.00;9.75;;;;;16.08;64.98;100814.13;5011023;28;45395;-60
2022/10/10 09:59:36;;;;;;;;;11.20;10.80;;;;;16.71;64.99;100912.22;4996859;28;45587;-62
2022/10/10 10:02:09;;;;;;;;;15.00;12.40;;;;;16.47;65.18;100873.53;4991740;28;45302;-62
2022/10/10 10:04:34;;;;;;;;;17.40;12.80;;;;;16.59;65.20;100896.50;4973702;28;47731;-61
2022/10/10 10:07:05;;;;;;;;;11.00;9.75;;;;;16.70;65.01;100907.78;4991299;28;45926;-61
2022/10/10 10:09:31;;;;;;;;;11.00;10.00;;;;;16.67;65.10;100901.63;4966737;28;45825;-61
2022/10/10 10:11:57;;;;;;;;;13.50;10.75;;;;;16.71;65.18;100915.81;4984734;28;45699;-60
2022/10/10 10:14:25;;;;;;;;;15.00;12.00;;;;;16.67;64.89;100904.41;4990892;28;45692;-63
2022/10/10 10:16:52;;;;;;;;;10.80;9.80;;;;;16.77;65.17;100906.50;4991223;28;45757;-59
2022/10/10 10:19:34;;;;;;;;;11.20;10.20;;;;;16.67;64.75;100892.47;4991246;28;45403;-59
2022/10/10 10:22:00;;;;;;;;;14.20;12.60;;;;;16.84;64.77;100908.28;4991096;28;46157;-59
2022/10/10 10:24:34;;;;;;;;;12.50;11.75;;;;;16.67;64.84;100887.78;5022900;28;48577;-59
2022/10/10 10:27:20;;;;;;;;;12.20;10.80;;;;;16.60;64.74;100884.31;4991497;28;45833;-59
2022/10/10 10:29:47;;;;;;;;;13.40;12.40;;;;;16.84;65.06;100922.13;4977592;28;45492;-59
2022/10/10 10:32:35;;;;;;;;;13.20;12.20;;;;;16.91;64.87;100926.44;4989512;28;45710;-58
2022/10/10 10:35:19;;;;;;;;;15.40;12.80;;;;;17.00;64.59;100928.78;4989263;28;46446;-59
2022/10/10 10:37:54;;;;;;;;;10.80;8.40;;;;;17.09;64.46;100938.44;4991470;28;45496;-60
2022/10/10 10:40:27;;;;;;;;;12.60;12.00;;;;;17.07;64.11;100935.06;4992560;28;45666;-60
2022/10/10 10:42:59;;;;;;;;;16.00;10.80;;;;;17.20;64.14;100945.81;4974940;28;45743;-59
2022/10/10 10:45:27;;;;;;;;;10.60;9.60;;;;;17.26;63.75;100938.44;4991974;28;46276;-60
2022/10/10 10:47:56;;;;;;;;;12.40;11.40;;;;;17.35;63.80;100941.63;4991231;28;45428;-60
2022/10/10 10:51:00;;;;;;;;;12.60;10.00;;;;;17.42;63.56;100949.78;4987562;28;45477;-60
2022/10/10 10:53:28;;;;;;;;;13.20;11.60;;;;;17.50;63.61;100951.28;4911677;28;45616;-60
2022/10/10 10:56:18;;;;;;;;;13.00;11.80;;;;;17.58;63.51;100961.94;4911633;28;46408;-60
2022/10/10 10:59:04;;;;;;;;;12.40;12.00;;;;;17.72;62.91;100957.72;4950269;28;45564;-60
2022/10/10 11:01:56;;;;;;;;;15.20;12.80;;;;;18.01;62.14;100967.84;4983368;28;45478;-62
2022/10/10 11:04:34;;;;;;;;;12.40;10.20;;;;;18.07;61.93;100935.44;4992210;28;45639;-60
2022/10/10 11:07:02;;;;;;;;;11.00;10.40;;;;;18.57;60.83;100964.09;4992329;28;46047;-60
2022/10/10 11:09:52;;;;;;;;;20.60;15.00;;;;;18.79;60.45;100963.25;4988034;28;45394;-64
2022/10/10 11:12:51;;;;;;;;;11.80;11.80;;;;;18.88;59.99;100977.53;4990636;28;45359;-61
2022/10/10 11:15:32;;;;;;;;;15.40;11.80;;;;;18.95;60.09;100970.63;4975569;28;45590;-61
2022/10/10 11:18:22;;;;;;;;;14.80;14.80;;;;;18.94;59.82;100957.84;4990509;28;46280;-58
2022/10/10 11:21:02;;;;;;;;;16.20;15.60;;;;;19.09;59.20;100937.69;4970534;28;45938;-58